Aérodrome :
LOGIN :

S'inscrire | Disclaimer

   EN    FR    IT 

 










Légende :    VFR   VFR Marginal   IFR   IFR Intensif   IFR Très Intensif
Visi : 
Plafond : 
>= 8 km
>= 3000ft
5 à 8 km
1000 à 3000 ft
1500m à 5 km
500 à 1000 ft
800 à 1500m
200 à 500 ft
< 800m
< 200 ft
Symboles :   Orages  Brouillard  Fortes neiges  Fortes précipitations  Vent > 20 kt
SIGMETs :   Divers  Orages  Givrage  Turbulence  Onde Orograph.  Cendres Volcan.






- Altitude de l'aérodrome : 124 ft
- Code IATA : NHT


EGWU - RAF Northolt

DERNIER METAR :
  • 030750Z 34003KT 9999 FEW020 BKN040 BKN082 14/13 Q1013 TEMPO SCT022 RMK BLU TEMPO WHT

METARs EXPIRÉS :
  • 030722Z 35002KT 9999 -RA BKN023 BKN065 14/12 Q1013 BECMG FEW020 RMK WHT BECMG BLU
  • 030650Z 31002KT 9999 BKN021 BKN065 13/12 Q1013 BECMG FEW020
  • 030550Z 35003KT 9999 FEW030 BKN062 BKN076 12/11 Q1013 NOSIG RMK BLU BLU
  • 030450Z AUTO 31003KT 9999 NCD 10/09 Q1013

TAF AMD TAF EGWU
Valide du 03 à 06h jusqu'au 04 à 00h UTC


030702Z 0306/0324 10004KT 9999 FEW030
TEMPO 0307/0308 BKN020
PROB30
TEMPO 0308/0310 SCT022
PROB30
TEMPO 0311/0320 7000 SHRA



MET'MAP, la Météo Aéronautique d'un coup d'oeil ! - Copyright ORBIFLY Décembre 2007 - Disclaimer

ORBIFLY MET'MAP TEAM :

Programmation & Développement : Alexandra Zaïnal
Sur une idée originale de : Baudouin d'Aumeries
Assistance à la programmation : Marc-Olivier Méhu
Soutien technique & logistique : Manuel Goepfert

Contact : metmap@orbifly.com




SOURCES & CREDITS :

   NOAA